Pagrindinis puslapis
METAR-TAF:

METAR-TAF

Oro uostai :

Petrolina, Pernambuco, Brazilija

platuma: 09-21S, ilguma: 040-33W, Aukštis: 385 m

Dabartinis oras

Ataskaita buvo paskelbta 1 valandą ir 1 minutes, ne 02:00 UTC
Vėjas 13 kt iš Rytų/Pietryčių
Temperatūra 29°C
Drėgmė 48%
Slėgis 1013 hPa
Matomumas 10 km arba daugiau
Išsisklaidę debesys ne aukštis 2500 ft

METAR: SBPL 210200Z 11013KT 9999 SCT025 29/17 Q1013

Laikas: 00:01 (03:01 UTC)

Prognozė

Ataskaita buvo paskelbta 5 valandos ir 1 minutes, ne 22:00 UTC
Prognozė galioja nuo 21 metu 00 UTC su 21 metu 24 UTC
Vėjas 7 kt iš Pietryčių
Matomumas 10 km arba daugiau
Mažai debesys ne aukštis 2000 ft

TAF: SBPL 202200Z 2100/2124 14007KT 9999 FEW020 TN25/2109Z TX34/2119Z PED

Orai ataskaitas ir orų prognozės (METAR, TAF).

turimą stotys yra geltonos ir raudonos taškus žemėlapyje.

Perkelti pele per norėdami pamatyti stoties vardą.

Tada spustelėkite, norėdami matyti oro stebėjimo ir prognozės.

Norėdami pakeisti žemėlapį: spustelėkite ant žalios mygtukų su juodo kryžiaus žemyn,; žalią mygtuką su brūkšneliu, jei norite nutolinti; arba žalių rodyklių gretimoms žemėlapius.


METAR-TAF: